Time;durP1;ratioP1;P1;durP2;ratioP2;P2;SDS_P1;SDS_P2;PMS_P1;PMS_P2;Temp;Humidity;BMP_temperature;BMP_pressure;BME280_temperature;BME280_humidity;BME280_pressure;Samples;Min_cycle;Max_cycle;Signal;HPM_P1;HPM_P2
2022/10/14 00:01:31;;;;;;;42.80;21.52;;;12.40;98.00;;;;;;5055896;28;20136;-83
2022/10/14 00:03:57;;;;;;;42.67;22.95;;;12.30;98.00;;;;;;5076812;28;20035;-83
2022/10/14 00:06:26;;;;;;;46.45;21.63;;;12.30;97.90;;;;;;5068118;28;20477;-83
2022/10/14 00:08:52;;;;;;;39.92;23.10;;;12.20;97.90;;;;;;5063721;28;20072;-82
2022/10/14 00:11:20;;;;;;;48.53;22.88;;;12.20;98.00;;;;;;5066589;28;20021;-82
2022/10/14 00:13:46;;;;;;;38.45;22.52;;;12.20;98.00;;;;;;5065547;28;20048;-85
2022/10/14 00:16:21;;;;;;;45.47;22.67;;;12.20;98.00;;;;;;5079730;28;20340;-84
2022/10/14 00:18:46;;;;;;;49.92;24.15;;;12.20;98.00;;;;;;5060507;28;20441;-81
2022/10/14 00:21:12;;;;;;;43.90;24.67;;;12.20;98.00;;;;;;5070671;28;20068;-84
2022/10/14 00:23:38;;;;;;;43.92;23.98;;;12.30;98.10;;;;;;5062259;28;20106;-83
2022/10/14 00:26:04;;;;;;;50.63;24.38;;;12.30;98.00;;;;;;5073615;28;20023;-85
2022/10/14 00:28:30;;;;;;;51.60;26.00;;;12.30;98.10;;;;;;5086717;28;20126;-84
2022/10/14 00:30:57;;;;;;;44.85;23.90;;;12.30;98.10;;;;;;5070704;28;20484;-84
2022/10/14 00:33:23;;;;;;;45.67;23.75;;;12.30;98.10;;;;;;5087165;28;20078;-84
2022/10/14 00:36:00;;;;;;;43.72;24.30;;;12.30;98.10;;;;;;5061466;28;20457;-84
2022/10/14 00:38:26;;;;;;;44.08;23.45;;;12.30;98.10;;;;;;5071173;28;20049;-82
2022/10/14 00:40:52;;;;;;;52.00;24.75;;;12.30;98.10;;;;;;5069998;28;20517;-85
2022/10/14 00:43:19;;;;;;;43.63;22.45;;;12.30;98.10;;;;;;5068672;28;20050;-84
2022/10/14 00:45:44;;;;;;;46.58;23.88;;;12.30;98.10;;;;;;5065048;28;20063;-85
2022/10/14 00:48:11;;;;;;;45.53;24.58;;;12.30;98.10;;;;;;5070842;28;20469;-85
2022/10/14 00:50:40;;;;;;;55.55;25.98;;;12.30;98.10;;;;;;5069552;28;20035;-82
2022/10/14 00:53:05;;;;;;;47.30;23.08;;;12.30;98.20;;;;;;5062830;28;20130;-84
2022/10/14 00:55:31;;;;;;;55.90;25.45;;;12.30;98.20;;;;;;5065121;28;20108;-83
2022/10/14 00:57:57;;;;;;;46.75;24.88;;;12.30;98.20;;;;;;5075441;28;20356;-82
2022/10/14 01:00:22;;;;;;;53.67;26.02;;;12.30;98.20;;;;;;5078157;28;20036;-84
2022/10/14 01:02:48;;;;;;;58.58;26.85;;;12.30;98.30;;;;;;5083539;28;20077;-84
2022/10/14 01:05:16;;;;;;;54.30;25.60;;;12.40;98.30;;;;;;5072081;28;20032;-85
2022/10/14 01:07:44;;;;;;;58.30;27.40;;;12.30;98.40;;;;;;5068044;28;20488;-81
2022/10/14 01:10:25;;;;;;;54.83;26.95;;;12.30;98.40;;;;;;5072065;28;20099;-82
2022/10/14 01:13:13;;;;;;;53.67;28.53;;;12.30;98.40;;;;;;5069311;28;20024;-83
2022/10/14 01:16:02;;;;;;;60.88;28.00;;;12.30;98.50;;;;;;5083985;28;20024;-81
2022/10/14 01:18:34;;;;;;;60.67;27.23;;;12.30;98.60;;;;;;5067689;28;20122;-84
2022/10/14 01:21:21;;;;;;;59.88;28.58;;;12.20;98.60;;;;;;5064681;28;20087;-83
2022/10/14 01:24:04;;;;;;;66.10;27.98;;;12.20;98.60;;;;;;5075368;28;20047;-82
2022/10/14 01:27:09;;;;;;;61.13;27.55;;;12.30;98.70;;;;;;5066173;28;20032;-84
2022/10/14 01:30:05;;;;;;;62.55;28.20;;;12.20;98.70;;;;;;5063994;28;20098;-82
2022/10/14 01:32:47;;;;;;;65.93;28.50;;;12.20;98.70;;;;;;5070489;28;20540;-84
2022/10/14 01:35:13;;;;;;;64.50;27.55;;;12.30;98.80;;;;;;5073859;28;20046;-83
2022/10/14 01:37:49;;;;;;;64.20;27.77;;;12.30;98.80;;;;;;5067733;28;20470;-84
2022/10/14 01:40:26;;;;;;;73.25;28.80;;;12.30;98.80;;;;;;5057608;28;20039;-84
2022/10/14 01:42:53;;;;;;;73.63;28.70;;;12.30;98.80;;;;;;5072917;28;20032;-83
2022/10/14 01:45:21;;;;;;;74.03;28.95;;;12.30;98.90;;;;;;5063699;28;20127;-83
2022/10/14 01:47:52;;;;;;;82.97;30.35;;;12.30;98.90;;;;;;5069376;28;20028;-84
2022/10/14 01:50:20;;;;;;;76.15;28.80;;;12.30;98.90;;;;;;5068444;28;20435;-82
2022/10/14 01:52:57;;;;;;;71.35;28.02;;;12.30;98.90;;;;;;5079251;28;20047;-83
2022/10/14 01:55:26;;;;;;;82.72;30.83;;;12.30;98.90;;;;;;5064420;28;20037;-84
2022/10/14 01:57:55;;;;;;;81.20;28.73;;;12.30;98.90;;;;;;5076024;28;20032;-82
2022/10/14 02:00:20;;;;;;;72.88;27.75;;;12.30;99.00;;;;;;5063651;28;20052;-84
2022/10/14 02:02:46;;;;;;;73.60;27.92;;;12.30;99.00;;;;;;5075281;28;20024;-83
2022/10/14 02:05:27;;;;;;;76.43;28.80;;;12.30;99.00;;;;;;5067116;28;20036;-83
2022/10/14 02:08:27;;;;;;;68.07;27.77;;;12.30;99.00;;;;;;5060995;28;20425;-84
2022/10/14 02:11:13;;;;;;;69.85;26.65;;;12.30;99.00;;;;;;5070815;28;20088;-84
2022/10/14 02:14:15;;;;;;;63.47;25.90;;;12.30;99.00;;;;;;5081279;28;20028;-83
2022/10/14 02:16:49;;;;;;;65.45;26.83;;;12.30;99.10;;;;;;5072646;28;20456;-84
2022/10/14 02:19:32;;;;;;;65.82;26.83;;;12.30;99.10;;;;;;5067530;28;20124;-84
2022/10/14 02:22:16;;;;;;;72.03;27.75;;;12.30;99.10;;;;;;5078257;28;20587;-82
2022/10/14 02:24:48;;;;;;;69.72;28.27;;;12.30;99.20;;;;;;5064996;28;20555;-82
2022/10/14 02:27:17;;;;;;;75.60;27.90;;;12.30;99.20;;;;;;5073126;28;20403;-82
2022/10/14 02:29:45;;;;;;;79.70;28.42;;;12.30;99.20;;;;;;5066131;28;20044;-83
2022/10/14 02:32:13;;;;;;;76.00;29.92;;;12.30;99.20;;;;;;5060109;28;20123;-83
2022/10/14 02:34:40;;;;;;;76.10;29.15;;;12.30;99.20;;;;;;5069386;28;20144;-84
2022/10/14 02:37:06;;;;;;;66.88;27.85;;;12.30;99.20;;;;;;5071715;28;20037;-83
2022/10/14 02:39:37;;;;;;;67.93;28.45;;;12.30;99.20;;;;;;5067626;28;20063;-83
2022/10/14 02:42:02;;;;;;;70.15;31.05;;;12.30;99.30;;;;;;5061161;28;20124;-84
2022/10/14 02:44:28;;;;;;;61.50;27.13;;;12.30;99.30;;;;;;5074704;28;20127;-84
2022/10/14 02:46:55;;;;;;;73.63;29.08;;;12.30;99.30;;;;;;5081167;28;20455;-84
2022/10/14 02:49:20;;;;;;;60.78;27.33;;;12.30;99.20;;;;;;5069928;28;20079;-83
2022/10/14 02:51:46;;;;;;;71.50;30.20;;;12.30;99.30;;;;;;5067176;28;20032;-83
2022/10/14 02:54:11;;;;;;;67.50;29.50;;;12.30;99.30;;;;;;5082550;28;20566;-82
2022/10/14 02:56:37;;;;;;;73.15;29.15;;;12.30;99.20;;;;;;5067435;28;20426;-84
2022/10/14 02:59:02;;;;;;;71.68;30.17;;;12.30;99.20;;;;;;5091246;22;20056;-87
2022/10/14 03:01:28;;;;;;;75.63;30.52;;;12.30;99.20;;;;;;5071690;28;20028;-87
2022/10/14 03:03:53;;;;;;;67.47;29.52;;;12.30;99.20;;;;;;5088317;28;20058;-85
2022/10/14 03:06:19;;;;;;;68.25;30.60;;;12.30;99.20;;;;;;5098369;28;20104;-84
2022/10/14 03:08:44;;;;;;;79.15;32.28;;;12.30;99.20;;;;;;5094038;28;20038;-83
2022/10/14 03:11:10;;;;;;;76.57;32.30;;;12.30;99.20;;;;;;5095088;28;20056;-82
2022/10/14 03:13:35;;;;;;;77.05;31.55;;;12.30;99.20;;;;;;5097810;28;20043;-84
2022/10/14 03:16:01;;;;;;;78.65;32.53;;;12.30;99.20;;;;;;5099233;28;20066;-84
2022/10/14 03:18:26;;;;;;;74.65;33.00;;;12.30;99.20;;;;;;5116213;28;20036;-84
2022/10/14 03:20:52;;;;;;;79.88;32.88;;;12.30;99.20;;;;;;5097963;28;20024;-84
2022/10/14 03:23:17;;;;;;;78.43;32.65;;;12.30;99.20;;;;;;5100846;28;20012;-84
2022/10/14 03:25:44;;;;;;;76.78;33.60;;;12.30;99.20;;;;;;5115548;28;20118;-84
2022/10/14 03:28:09;;;;;;;72.95;32.33;;;12.30;99.20;;;;;;5099292;28;20094;-81
2022/10/14 03:30:35;;;;;;;75.93;33.38;;;12.30;99.20;;;;;;5097278;28;20047;-84
2022/10/14 03:33:00;;;;;;;77.88;33.92;;;12.30;99.20;;;;;;5105497;28;20043;-83
2022/10/14 03:35:26;;;;;;;84.78;34.53;;;12.30;99.20;;;;;;5099970;28;20040;-84
2022/10/14 03:37:53;;;;;;;73.13;33.65;;;12.30;99.20;;;;;;5096296;28;20032;-84
2022/10/14 03:40:19;;;;;;;78.75;34.28;;;12.30;99.20;;;;;;5093524;28;20056;-84
2022/10/14 03:42:44;;;;;;;72.45;34.35;;;12.30;99.20;;;;;;5088953;28;20571;-84
2022/10/14 03:45:10;;;;;;;73.65;32.85;;;12.30;99.20;;;;;;5117452;28;20012;-84
2022/10/14 03:47:35;;;;;;;77.65;34.20;;;12.30;99.20;;;;;;5099045;28;20016;-83
2022/10/14 03:50:03;;;;;;;76.40;34.03;;;12.30;99.20;;;;;;5102121;28;20023;-81
2022/10/14 03:52:29;;;;;;;73.28;34.88;;;12.30;99.10;;;;;;5115880;28;20088;-82
2022/10/14 03:54:55;;;;;;;78.65;33.45;;;12.30;99.20;;;;;;5097165;28;20038;-82
2022/10/14 03:57:20;;;;;;;76.13;34.78;;;12.30;99.10;;;;;;5099846;28;20024;-84
2022/10/14 03:59:46;;;;;;;75.88;33.70;;;12.30;99.20;;;;;;5097186;28;20040;-83
2022/10/14 04:02:11;;;;;;;77.97;35.15;;;12.30;99.10;;;;;;5113992;28;20040;-81
2022/10/14 04:04:37;;;;;;;74.53;35.22;;;12.30;99.10;;;;;;5108019;28;20045;-83
2022/10/14 04:07:02;;;;;;;73.85;34.25;;;12.30;99.10;;;;;;5116921;28;20322;-83
2022/10/14 04:09:28;;;;;;;78.05;34.95;;;12.30;99.10;;;;;;5094963;28;20061;-84
2022/10/14 04:11:55;;;;;;;77.68;35.03;;;12.30;99.10;;;;;;5107665;28;20034;-82
2022/10/14 04:14:22;;;;;;;72.13;36.38;;;12.30;99.10;;;;;;5111166;28;20016;-84
2022/10/14 04:16:47;;;;;;;77.57;35.75;;;12.30;99.10;;;;;;5099980;28;20074;-82
2022/10/14 04:19:13;;;;;;;72.95;35.25;;;12.30;99.00;;;;;;5102498;28;20016;-83
2022/10/14 04:21:38;;;;;;;71.25;35.83;;;12.20;99.00;;;;;;5108424;28;20036;-83
2022/10/14 04:24:04;;;;;;;69.45;35.50;;;12.20;98.90;;;;;;5102335;28;20031;-84
2022/10/14 04:26:29;;;;;;;68.65;35.55;;;12.20;99.00;;;;;;5098484;28;20020;-81
2022/10/14 04:28:55;;;;;;;72.68;35.80;;;12.10;99.00;;;;;;5093224;28;20027;-83
2022/10/14 04:31:21;;;;;;;72.15;35.72;;;12.10;99.00;;;;;;5090115;28;20009;-83
2022/10/14 04:33:47;;;;;;;71.95;34.42;;;12.00;99.00;;;;;;5088859;22;20064;-70
2022/10/14 04:36:12;;;;;;;75.90;37.45;;;12.00;99.00;;;;;;5082361;28;20024;-69
2022/10/14 04:38:38;;;;;;;74.45;36.75;;;11.90;99.00;;;;;;5092315;28;20024;-69
2022/10/14 04:41:03;;;;;;;73.97;35.30;;;11.90;99.00;;;;;;5087924;28;20035;-69
2022/10/14 04:43:29;;;;;;;79.78;35.92;;;11.90;99.10;;;;;;5082546;28;20415;-68
2022/10/14 04:45:54;;;;;;;79.30;36.75;;;11.80;99.10;;;;;;5083819;28;20059;-67
2022/10/14 04:48:20;;;;;;;77.55;36.05;;;11.80;99.10;;;;;;5096209;28;20024;-68
2022/10/14 04:50:50;;;;;;;82.30;37.45;;;11.80;99.10;;;;;;5089223;28;20369;-68
2022/10/14 04:53:16;;;;;;;74.82;37.10;;;11.80;99.20;;;;;;5062830;28;20441;-68
2022/10/14 04:55:43;;;;;;;87.85;40.13;;;11.90;99.30;;;;;;5080254;28;20028;-68
2022/10/14 04:58:09;;;;;;;86.35;38.17;;;11.90;99.30;;;;;;5086830;28;20031;-70
2022/10/14 05:00:34;;;;;;;87.18;40.92;;;11.90;99.30;;;;;;5196694;22;20087;-72
2022/10/14 05:02:59;;;;;;;83.20;40.38;;;11.90;99.30;;;;;;5042495;28;20017;-68
2022/10/14 05:05:25;;;;;;;94.47;41.67;;;11.90;99.30;;;;;;5065863;28;20589;-70
2022/10/14 05:07:51;;;;;;;94.65;40.25;;;11.90;99.30;;;;;;5050629;28;20168;-67
2022/10/14 05:12:52;;;;;;;98.90;40.55;;;12.00;99.40;;;;;;5083854;22;20063;-68
2022/10/14 05:15:18;;;;;;;95.72;41.75;;;11.90;99.40;;;;;;5062418;28;20025;-67
2022/10/14 05:17:44;;;;;;;96.45;42.38;;;12.00;99.40;;;;;;5056685;28;20036;-68
2022/10/14 05:20:10;;;;;;;97.28;41.55;;;12.00;99.40;;;;;;5061936;28;20040;-67
2022/10/14 05:22:36;;;;;;;90.10;41.10;;;12.00;99.40;;;;;;5068372;28;20039;-68
2022/10/14 05:25:02;;;;;;;101.60;44.17;;;12.00;99.40;;;;;;5067937;28;20452;-70
2022/10/14 05:27:28;;;;;;;99.32;42.63;;;12.00;99.40;;;;;;5066567;28;20040;-69
2022/10/14 05:29:53;;;;;;;96.47;42.97;;;12.00;99.40;;;;;;5058652;28;20028;-68
2022/10/14 05:32:19;;;;;;;100.13;43.45;;;12.00;99.50;;;;;;5058103;28;20028;-68
2022/10/14 05:34:44;;;;;;;99.00;44.85;;;12.00;99.50;;;;;;5066073;28;20436;-68
2022/10/14 05:37:10;;;;;;;94.55;41.60;;;12.00;99.50;;;;;;5051503;28;20047;-68
2022/10/14 05:39:35;;;;;;;100.97;43.90;;;12.00;99.50;;;;;;5067848;28;20024;-69
2022/10/14 05:42:01;;;;;;;107.28;44.78;;;12.00;99.50;;;;;;5070885;28;20408;-66
2022/10/14 05:44:26;;;;;;;101.72;43.20;;;12.10;99.50;;;;;;5056857;28;20112;-65
2022/10/14 05:46:51;;;;;;;103.20;44.20;;;12.10;99.50;;;;;;5063873;28;20076;-66
2022/10/14 05:49:17;;;;;;;104.28;42.60;;;12.10;99.50;;;;;;5060854;28;20039;-70
2022/10/14 05:51:42;;;;;;;93.70;41.08;;;12.10;99.40;;;;;;5062327;28;20128;-68
2022/10/14 05:54:08;;;;;;;94.38;41.53;;;12.10;99.40;;;;;;5066750;28;20115;-67
2022/10/14 05:56:33;;;;;;;96.97;43.63;;;12.10;99.40;;;;;;5067657;28;20032;-67
2022/10/14 05:58:59;;;;;;;105.45;43.25;;;12.10;99.40;;;;;;5069038;28;20429;-68
2022/10/14 06:01:24;;;;;;;100.82;42.70;;;12.10;99.50;;;;;;5067559;28;20150;-67
2022/10/14 06:03:50;;;;;;;94.53;41.85;;;12.10;99.40;;;;;;5070007;28;20032;-68
2022/10/14 06:06:16;;;;;;;94.18;41.45;;;12.10;99.40;;;;;;5067234;28;20504;-68
2022/10/14 06:08:43;;;;;;;97.47;42.58;;;12.10;99.40;;;;;;5071492;28;20020;-68
2022/10/14 06:11:09;;;;;;;88.40;41.28;;;12.10;99.40;;;;;;5066698;28;20153;-69
2022/10/14 06:13:35;;;;;;;82.90;40.63;;;12.10;99.40;;;;;;5073101;28;20468;-67
2022/10/14 06:16:04;;;;;;;86.70;40.75;;;12.10;99.40;;;;;;5072306;28;20024;-68
2022/10/14 06:18:30;;;;;;;89.65;40.15;;;12.10;99.40;;;;;;5064284;28;20059;-68
2022/10/14 06:20:56;;;;;;;82.95;41.00;;;12.10;99.40;;;;;;5067982;28;20082;-67
2022/10/14 06:23:21;;;;;;;81.95;38.70;;;12.20;99.30;;;;;;5063779;28;20148;-68
2022/10/14 06:25:47;;;;;;;76.45;38.58;;;12.10;99.30;;;;;;5070933;28;20031;-68
2022/10/14 06:28:12;;;;;;;77.93;37.95;;;12.20;99.30;;;;;;5072404;28;20056;-67
2022/10/14 06:30:38;;;;;;;81.78;38.20;;;12.10;99.20;;;;;;5070648;28;20065;-67
2022/10/14 06:33:03;;;;;;;78.72;37.30;;;12.10;99.20;;;;;;5080805;28;20044;-68
2022/10/14 06:35:29;;;;;;;75.63;38.08;;;12.10;99.10;;;;;;5072076;28;20040;-68
2022/10/14 06:37:54;;;;;;;76.38;36.97;;;12.10;99.10;;;;;;5072476;28;20519;-68
2022/10/14 06:40:20;;;;;;;70.90;38.08;;;12.10;99.00;;;;;;5057380;28;20036;-68
2022/10/14 06:42:45;;;;;;;69.78;35.65;;;12.10;99.00;;;;;;5069254;28;20406;-67
2022/10/14 06:45:11;;;;;;;67.63;36.13;;;12.10;99.00;;;;;;5069890;28;20020;-67
2022/10/14 06:47:37;;;;;;;69.38;35.95;;;12.20;98.90;;;;;;5070791;28;20107;-68
2022/10/14 06:50:03;;;;;;;76.03;38.55;;;12.30;98.90;;;;;;5071877;28;20127;-68
2022/10/14 06:52:28;;;;;;;64.60;35.05;;;12.30;98.90;;;;;;5064362;28;20032;-69
2022/10/14 06:54:54;;;;;;;67.22;36.58;;;12.40;98.80;;;;;;5068976;28;20360;-68
2022/10/14 06:57:19;;;;;;;62.08;35.38;;;12.50;98.70;;;;;;5059573;28;20040;-68
2022/10/14 06:59:45;;;;;;;59.70;34.03;;;12.60;98.50;;;;;;5071547;28;20056;-67
2022/10/14 07:02:10;;;;;;;63.63;32.90;;;12.60;98.40;;;;;;5069313;28;20032;-67
2022/10/14 07:04:38;;;;;;;59.72;34.97;;;12.60;98.20;;;;;;5078324;28;20032;-68
2022/10/14 07:07:03;;;;;;;56.47;33.30;;;12.60;97.90;;;;;;5073079;28;20100;-67
2022/10/14 07:09:28;;;;;;;49.80;31.27;;;12.60;97.60;;;;;;5070625;28;20372;-68
2022/10/14 07:11:54;;;;;;;55.35;31.17;;;12.60;97.50;;;;;;5068931;28;20051;-68
2022/10/14 07:14:20;;;;;;;53.40;30.90;;;12.60;97.40;;;;;;5065430;28;20479;-69
2022/10/14 07:16:45;;;;;;;51.33;32.28;;;12.60;97.00;;;;;;5069055;28;20454;-68
2022/10/14 07:19:11;;;;;;;52.55;32.80;;;12.60;97.10;;;;;;5075732;28;20348;-67
2022/10/14 07:21:37;;;;;;;53.30;31.75;;;12.70;97.10;;;;;;5070072;28;20435;-68
2022/10/14 07:24:02;;;;;;;50.17;31.70;;;12.70;96.90;;;;;;5070116;28;20413;-68
2022/10/14 07:26:31;;;;;;;50.00;31.13;;;12.70;96.60;;;;;;5069951;28;20447;-69
2022/10/14 07:28:57;;;;;;;56.22;31.88;;;12.80;96.60;;;;;;5060012;28;20107;-68
2022/10/14 07:31:23;;;;;;;50.38;30.48;;;12.80;96.50;;;;;;5053529;28;20116;-68
2022/10/14 07:33:48;;;;;;;48.85;30.92;;;12.80;96.20;;;;;;5067876;28;20111;-68
2022/10/14 07:36:16;;;;;;;47.95;30.55;;;12.70;96.10;;;;;;5077512;28;20028;-68
2022/10/14 07:38:42;;;;;;;50.13;30.27;;;12.70;96.10;;;;;;5070415;28;20405;-68
2022/10/14 07:41:15;;;;;;;51.15;30.52;;;12.70;96.10;;;;;;5069212;28;20055;-68
2022/10/14 07:43:46;;;;;;;52.13;31.55;;;12.60;96.00;;;;;;5071304;28;20405;-68
2022/10/14 07:46:12;;;;;;;54.83;30.83;;;12.60;96.10;;;;;;5069177;28;20078;-68
2022/10/14 07:48:38;;;;;;;49.70;31.13;;;12.60;95.90;;;;;;5056197;28;20320;-67
2022/10/14 07:51:07;;;;;;;47.97;30.23;;;12.80;96.20;;;;;;5074646;28;20040;-67
2022/10/14 07:53:33;;;;;;;54.33;29.65;;;13.00;96.00;;;;;;5069030;28;20040;-68
2022/10/14 07:55:58;;;;;;;51.17;31.23;;;13.00;95.50;;;;;;5068724;28;20110;-69
2022/10/14 07:58:26;;;;;;;48.08;28.25;;;13.10;95.30;;;;;;5070757;28;20020;-68
2022/10/14 08:00:53;;;;;;;43.63;28.60;;;13.10;94.80;;;;;;5070697;28;20037;-68
2022/10/14 08:03:19;;;;;;;47.95;29.63;;;13.30;94.80;;;;;;5068429;28;20032;-68
2022/10/14 08:05:46;;;;;;;44.80;28.30;;;13.30;94.10;;;;;;5074340;28;20043;-68
2022/10/14 08:08:12;;;;;;;48.30;28.80;;;13.30;93.80;;;;;;5070443;28;20040;-72
2022/10/14 08:10:39;;;;;;;45.30;27.58;;;13.40;93.70;;;;;;5074272;28;20353;-68
2022/10/14 08:13:05;;;;;;;40.13;26.85;;;13.30;93.20;;;;;;5070336;28;20441;-68
2022/10/14 08:15:37;;;;;;;39.33;25.60;;;13.50;93.20;;;;;;5070124;28;20461;-68
2022/10/14 08:18:04;;;;;;;39.10;26.27;;;13.40;92.80;;;;;;5067305;28;20021;-69
2022/10/14 08:20:29;;;;;;;42.42;27.55;;;13.30;92.80;;;;;;5072278;28;20041;-69
2022/10/14 08:22:55;;;;;;;40.67;26.95;;;13.10;92.60;;;;;;5065286;28;20032;-67
2022/10/14 08:25:21;;;;;;;41.38;26.00;;;13.10;92.90;;;;;;5069388;28;20103;-67
2022/10/14 08:27:49;;;;;;;44.22;25.70;;;13.00;92.70;;;;;;5069303;28;20032;-68
2022/10/14 08:30:14;;;;;;;38.05;25.58;;;13.20;93.20;;;;;;5070078;28;20430;-67
2022/10/14 08:32:40;;;;;;;43.10;26.25;;;13.30;93.00;;;;;;5069789;28;20043;-68
2022/10/14 08:35:06;;;;;;;46.45;27.33;;;13.30;92.60;;;;;;5069108;28;20032;-68
2022/10/14 08:37:32;;;;;;;38.40;25.42;;;13.10;92.20;;;;;;5069068;28;20036;-68
2022/10/14 08:39:57;;;;;;;41.28;25.77;;;13.30;92.80;;;;;;5059603;28;20097;-68
2022/10/14 08:42:35;;;;;;;37.47;24.25;;;13.50;92.60;;;;;;5069270;28;20028;-68
2022/10/14 08:45:14;;;;;;;41.95;25.88;;;13.60;92.40;;;;;;5070331;28;20028;-68
2022/10/14 08:47:42;;;;;;;38.47;24.80;;;13.60;92.10;;;;;;5067834;28;20032;-68
2022/10/14 08:50:18;;;;;;;37.17;24.23;;;13.70;91.80;;;;;;5074539;28;20025;-67
2022/10/14 08:52:50;;;;;;;38.38;23.80;;;13.70;91.60;;;;;;5068517;28;20169;-68
2022/10/14 08:55:44;;;;;;;44.85;24.23;;;13.70;91.20;;;;;;5046398;28;20025;-68
2022/10/14 08:58:37;;;;;;;36.97;23.55;;;13.60;91.00;;;;;;5066199;28;20038;-68
2022/10/14 09:01:14;;;;;;;37.58;24.15;;;13.50;91.20;;;;;;5060860;28;20033;-69
2022/10/14 09:03:41;;;;;;;35.80;23.58;;;13.60;91.80;;;;;;5069637;28;20035;-68
2022/10/14 09:06:25;;;;;;;36.70;24.17;;;13.70;91.80;;;;;;5074425;28;20104;-68
2022/10/14 09:08:59;;;;;;;39.13;24.02;;;13.80;91.80;;;;;;5077385;28;20104;-69
2022/10/14 09:11:38;;;;;;;34.00;22.58;;;14.00;91.40;;;;;;5075766;28;20325;-70
2022/10/14 09:14:07;;;;;;;33.25;22.10;;;14.00;89.80;;;;;;5068438;28;20044;-68
2022/10/14 09:16:37;;;;;;;36.35;22.55;;;14.00;90.00;;;;;;5068084;28;20051;-69
2022/10/14 09:19:05;;;;;;;33.50;22.00;;;14.10;89.70;;;;;;5068897;28;20378;-69
2022/10/14 09:21:36;;;;;;;33.72;22.23;;;14.00;89.40;;;;;;5065189;28;20056;-68
2022/10/14 09:24:13;;;;;;;34.55;22.70;;;14.00;89.80;;;;;;5058078;28;20112;-69
2022/10/14 09:26:45;;;;;;;36.60;22.65;;;14.20;89.90;;;;;;5067291;28;20039;-68
2022/10/14 09:29:41;;;;;;;41.22;23.85;;;14.30;89.30;;;;;;5060619;28;20342;-68
2022/10/14 09:32:11;;;;;;;31.65;20.80;;;14.30;88.50;;;;;;5055284;28;20044;-68
2022/10/14 09:34:48;;;;;;;35.30;21.67;;;14.30;88.50;;;;;;5071650;28;20120;-68
2022/10/14 09:37:28;;;;;;;30.52;20.55;;;14.20;87.80;;;;;;5071634;28;20040;-68
2022/10/14 09:40:32;;;;;;;31.20;20.42;;;14.20;88.10;;;;;;5067144;28;20389;-68
2022/10/14 09:43:12;;;;;;;35.35;21.20;;;14.10;87.80;;;;;;5068480;28;20028;-68
2022/10/14 09:45:58;;;;;;;32.08;20.90;;;14.00;88.50;;;;;;5068315;28;20020;-68
2022/10/14 09:48:46;;;;;;;32.65;21.42;;;14.10;88.60;;;;;;5065171;28;20020;-68
2022/10/14 09:51:19;;;;;;;36.72;20.98;;;14.00;88.70;;;;;;5068851;28;20102;-68
2022/10/14 09:53:50;;;;;;;35.97;21.80;;;14.10;89.20;;;;;;5067210;28;20198;-67
2022/10/14 09:56:27;;;;;;;30.33;21.08;;;14.20;89.20;;;;;;5067445;28;20025;-67
2022/10/14 09:58:55;;;;;;;31.30;20.88;;;14.40;89.00;;;;;;5068787;28;20040;-69
2022/10/14 10:01:24;;;;;;;30.08;20.80;;;14.10;88.50;;;;;;5065247;28;20051;-68
2022/10/14 10:03:51;;;;;;;31.83;21.13;;;14.00;88.40;;;;;;5063066;28;20120;-69
2022/10/14 10:06:22;;;;;;;31.15;21.23;;;13.90;88.60;;;;;;5067003;28;20033;-67
2022/10/14 10:08:56;;;;;;;32.00;20.48;;;13.90;88.80;;;;;;5067399;28;20107;-69
2022/10/14 10:11:38;;;;;;;28.65;18.90;;;13.90;89.10;;;;;;5067776;28;20090;-68
2022/10/14 10:14:28;;;;;;;31.55;20.38;;;13.80;89.10;;;;;;5068734;28;20016;-68
2022/10/14 10:17:09;;;;;;;34.20;21.38;;;13.80;89.30;;;;;;5057440;28;20090;-68
2022/10/14 10:19:42;;;;;;;30.30;19.83;;;13.70;89.10;;;;;;5067600;28;20047;-68
2022/10/14 10:22:37;;;;;;;34.55;21.17;;;13.80;89.70;;;;;;5067808;28;20063;-68
2022/10/14 10:25:03;;;;;;;29.55;21.17;;;13.70;89.50;;;;;;5066084;28;20042;-68
2022/10/14 10:27:36;;;;;;;31.55;21.27;;;13.70;89.70;;;;;;5067748;28;20092;-68
2022/10/14 10:30:14;;;;;;;31.92;20.98;;;13.80;90.00;;;;;;5068833;28;20031;-69
2022/10/14 10:33:23;;;;;;;31.67;20.70;;;13.70;90.10;;;;;;5074158;28;20408;-68
2022/10/14 10:36:06;;;;;;;30.20;20.80;;;13.50;89.70;;;;;;5068113;28;20400;-68
2022/10/14 10:38:44;;;;;;;30.38;20.50;;;13.40;90.10;;;;;;5055969;28;20064;-68
2022/10/14 10:41:29;;;;;;;31.58;20.48;;;13.30;90.30;;;;;;5066769;28;20035;-68
2022/10/14 10:44:21;;;;;;;33.33;20.85;;;13.20;90.70;;;;;;5068579;28;20080;-68
2022/10/14 10:46:53;;;;;;;31.25;21.17;;;13.30;90.90;;;;;;5070756;28;20024;-68
2022/10/14 10:50:00;;;;;;;33.63;20.88;;;13.00;91.00;;;;;;5068434;28;20027;-68
2022/10/14 10:52:33;;;;;;;31.70;20.02;;;12.80;91.40;;;;;;5052529;28;20029;-68
2022/10/14 10:55:17;;;;;;;38.10;20.83;;;12.90;91.60;;;;;;5054393;28;20020;-68
2022/10/14 10:58:01;;;;;;;31.95;20.95;;;13.00;91.20;;;;;;5058508;28;20020;-68
2022/10/14 11:00:33;;;;;;;29.90;19.48;;;13.60;90.70;;;;;;5070445;28;20028;-70
2022/10/14 11:03:24;;;;;;;28.33;18.42;;;14.50;88.00;;;;;;5080571;28;20040;-68
2022/10/14 11:05:57;;;;;;;;;;;14.50;86.50;;;;;;5060841;28;20451;-68
2022/10/14 11:14:17;;;;;;;22.33;15.35;;;14.50;84.50;;;;;;5061985;28;20135;-68
2022/10/14 11:17:04;;;;;;;21.50;14.80;;;15.20;84.10;;;;;;5068926;28;20036;-69
2022/10/14 11:19:46;;;;;;;21.63;15.00;;;15.20;83.20;;;;;;5064781;28;20317;-68
2022/10/14 11:22:20;;;;;;;21.00;15.55;;;15.10;83.00;;;;;;5071692;28;20020;-68
2022/10/14 11:24:57;;;;;;;21.77;14.63;;;15.00;83.00;;;;;;5070380;28;20031;-68
2022/10/14 11:27:46;;;;;;;23.65;15.88;;;15.20;83.60;;;;;;5069369;28;20352;-68
2022/10/14 11:30:12;;;;;;;19.77;13.85;;;15.20;83.00;;;;;;5030096;28;20048;-70
2022/10/14 11:32:55;;;;;;;19.58;13.68;;;15.20;83.20;;;;;;5068717;28;20162;-69
2022/10/14 11:35:47;;;;;;;19.38;12.80;;;15.60;83.40;;;;;;5071621;28;20021;-70
2022/10/14 11:38:26;;;;;;;22.05;13.75;;;15.80;82.60;;;;;;5071196;28;20513;-69
2022/10/14 11:41:05;;;;;;;20.50;13.35;;;16.00;82.00;;;;;;5051577;28;20036;-69
2022/10/14 11:44:06;;;;;;;17.67;13.30;;;15.80;81.10;;;;;;5071074;28;20381;-69
2022/10/14 11:46:34;;;;;;;;;;;15.80;82.30;;;;;;5062594;28;20028;-69
2022/10/14 11:49:08;;;;;;;17.98;12.82;;;16.70;80.50;;;;;;5071570;28;19900;-68
2022/10/14 11:51:39;;;;;;;17.45;11.77;;;16.70;79.50;;;;;;5069642;28;20095;-71
2022/10/14 11:54:21;;;;;;;16.98;12.15;;;16.70;79.20;;;;;;5070384;28;20473;-69
2022/10/14 11:56:56;;;;;;;17.05;11.43;;;16.70;78.40;;;;;;5069936;28;20064;-69
2022/10/14 11:59:39;;;;;;;14.82;10.70;;;17.30;76.70;;;;;;5069326;28;20375;-69
2022/10/14 12:02:18;;;;;;;17.13;11.15;;;17.60;75.10;;;;;;5066135;28;20023;-69
2022/10/14 12:04:50;;;;;;;16.45;10.73;;;17.80;75.20;;;;;;5065907;28;20344;-69
2022/10/14 12:07:21;;;;;;;13.27;9.13;;;17.90;74.10;;;;;;5071428;28;20119;-72
2022/10/14 12:09:52;;;;;;;;;;;18.20;74.70;;;;;;5061990;28;20060;-70
2022/10/14 12:12:20;;;;;;;12.93;9.32;;;17.90;74.40;;;;;;5069963;28;19940;-70
2022/10/14 12:14:55;;;;;;;11.80;8.77;;;17.40;75.20;;;;;;5063944;28;20095;-69
2022/10/14 12:17:49;;;;;;;12.43;8.80;;;17.00;76.90;;;;;;5051015;28;20477;-69
2022/10/14 12:20:43;;;;;;;14.40;9.50;;;17.00;76.60;;;;;;5068102;28;20136;-70
2022/10/14 12:23:15;;;;;;;12.18;8.80;;;16.90;77.10;;;;;;5070148;28;20350;-69
2022/10/14 12:25:49;;;;;;;17.92;9.52;;;16.70;78.20;;;;;;5069259;28;20028;-71
2022/10/14 12:28:18;;;;;;;11.77;8.35;;;16.60;77.90;;;;;;5068374;28;20016;-70
2022/10/14 12:30:43;;;;;;;14.32;8.85;;;16.40;78.60;;;;;;5070345;28;20467;-69
2022/10/14 12:33:12;;;;;;;13.45;9.40;;;16.30;79.00;;;;;;5069356;28;20020;-69
2022/10/14 12:35:59;;;;;;;12.95;9.15;;;16.30;79.10;;;;;;5067210;28;20659;-70
2022/10/14 12:38:29;;;;;;;13.32;9.35;;;16.30;79.40;;;;;;5063930;28;20085;-70
2022/10/14 12:41:33;;;;;;;14.60;9.30;;;16.20;79.60;;;;;;5068985;28;20397;-73
2022/10/14 12:44:02;;;;;;;12.25;7.95;;;16.30;80.30;;;;;;5070771;28;20021;-70
2022/10/14 12:46:27;;;;;;;14.35;8.57;;;16.30;80.40;;;;;;5080345;28;20041;-69
2022/10/14 12:48:53;;;;;;;12.73;8.88;;;16.40;80.70;;;;;;5068772;28;20029;-69
2022/10/14 12:51:21;;;;;;;12.18;8.48;;;16.30;80.50;;;;;;5069680;28;20024;-70
2022/10/14 12:54:13;;;;;;;13.02;9.18;;;16.30;80.30;;;;;;5061723;28;20122;-71
2022/10/14 12:57:02;;;;;;;13.90;9.15;;;16.10;80.00;;;;;;5069042;28;20048;-70